sensor_id;sensor_type;location;lat;lon;timestamp;P1;durP1;ratioP1;P2;durP2;ratioP2
24301;SDS011;12421;49.732;20.078;2023-07-31T00:08:18;12.50;;;3.30;;
24301;SDS011;12421;49.732;20.078;2023-07-31T00:18:23;8.80;;;3.00;;
24301;SDS011;12421;49.732;20.078;2023-07-31T00:28:27;6.40;;;2.90;;
24301;SDS011;12421;49.732;20.078;2023-07-31T00:38:32;7.00;;;3.00;;
24301;SDS011;12421;49.732;20.078;2023-07-31T00:48:36;8.20;;;4.10;;
24301;SDS011;12421;49.732;20.078;2023-07-31T00:58:41;10.30;;;4.20;;
24301;SDS011;12421;49.732;20.078;2023-07-31T01:08:54;9.60;;;4.40;;
24301;SDS011;12421;49.732;20.078;2023-07-31T01:19:21;7.80;;;3.80;;
24301;SDS011;12421;49.732;20.078;2023-07-31T01:29:29;9.90;;;3.50;;
24301;SDS011;12421;49.732;20.078;2023-07-31T01:39:40;8.70;;;3.80;;
24301;SDS011;12421;49.732;20.078;2023-07-31T01:49:44;7.10;;;3.50;;
24301;SDS011;12421;49.732;20.078;2023-07-31T01:59:48;7.80;;;3.60;;
24301;SDS011;12421;49.732;20.078;2023-07-31T02:09:51;6.40;;;2.90;;
24301;SDS011;12421;49.732;20.078;2023-07-31T02:19:56;6.70;;;3.20;;
24301;SDS011;12421;49.732;20.078;2023-07-31T02:30:00;5.60;;;2.90;;
24301;SDS011;12421;49.732;20.078;2023-07-31T02:40:05;11.60;;;3.70;;
24301;SDS011;12421;49.732;20.078;2023-07-31T02:50:09;5.00;;;3.20;;
24301;SDS011;12421;49.732;20.078;2023-07-31T03:00:14;15.30;;;3.80;;
24301;SDS011;12421;49.732;20.078;2023-07-31T03:10:18;5.30;;;3.10;;
24301;SDS011;12421;49.732;20.078;2023-07-31T03:20:22;5.10;;;3.00;;
24301;SDS011;12421;49.732;20.078;2023-07-31T03:30:26;6.00;;;2.80;;
24301;SDS011;12421;49.732;20.078;2023-07-31T03:40:30;8.90;;;2.70;;
24301;SDS011;12421;49.732;20.078;2023-07-31T03:50:35;4.80;;;1.90;;
24301;SDS011;12421;49.732;20.078;2023-07-31T04:00:40;2.50;;;1.40;;
24301;SDS011;12421;49.732;20.078;2023-07-31T04:10:44;2.80;;;1.30;;
24301;SDS011;12421;49.732;20.078;2023-07-31T04:20:47;3.60;;;1.70;;
24301;SDS011;12421;49.732;20.078;2023-07-31T04:30:52;3.40;;;1.20;;
24301;SDS011;12421;49.732;20.078;2023-07-31T04:51:27;3.90;;;1.40;;
24301;SDS011;12421;49.732;20.078;2023-07-31T05:01:31;5.00;;;1.70;;
24301;SDS011;12421;49.732;20.078;2023-07-31T05:11:35;2.90;;;1.40;;
24301;SDS011;12421;49.732;20.078;2023-07-31T05:21:40;3.40;;;1.40;;
24301;SDS011;12421;49.732;20.078;2023-07-31T05:31:43;2.50;;;1.30;;
24301;SDS011;12421;49.732;20.078;2023-07-31T05:41:47;3.10;;;1.30;;
24301;SDS011;12421;49.732;20.078;2023-07-31T05:51:51;1.90;;;1.20;;
24301;SDS011;12421;49.732;20.078;2023-07-31T06:01:54;3.30;;;1.70;;
24301;SDS011;12421;49.732;20.078;2023-07-31T06:11:58;3.80;;;2.10;;
24301;SDS011;12421;49.732;20.078;2023-07-31T06:22:01;7.50;;;2.10;;
24301;SDS011;12421;49.732;20.078;2023-07-31T06:32:04;2.70;;;1.90;;
24301;SDS011;12421;49.732;20.078;2023-07-31T06:42:09;2.90;;;1.50;;
24301;SDS011;12421;49.732;20.078;2023-07-31T06:52:13;2.50;;;1.80;;
24301;SDS011;12421;49.732;20.078;2023-07-31T07:02:17;4.50;;;2.00;;
24301;SDS011;12421;49.732;20.078;2023-07-31T07:12:20;3.50;;;1.70;;
24301;SDS011;12421;49.732;20.078;2023-07-31T07:22:24;3.70;;;1.80;;
24301;SDS011;12421;49.732;20.078;2023-07-31T07:32:29;3.00;;;1.60;;
24301;SDS011;12421;49.732;20.078;2023-07-31T07:42:34;3.30;;;1.70;;
24301;SDS011;12421;49.732;20.078;2023-07-31T07:52:40;2.90;;;1.50;;
24301;SDS011;12421;49.732;20.078;2023-07-31T08:02:44;5.60;;;1.60;;
24301;SDS011;12421;49.732;20.078;2023-07-31T08:12:49;4.40;;;1.80;;
24301;SDS011;12421;49.732;20.078;2023-07-31T08:22:52;4.10;;;2.20;;
24301;SDS011;12421;49.732;20.078;2023-07-31T08:32:57;3.40;;;1.90;;
24301;SDS011;12421;49.732;20.078;2023-07-31T08:43:00;3.90;;;1.80;;
24301;SDS011;12421;49.732;20.078;2023-07-31T08:53:05;4.30;;;1.60;;
24301;SDS011;12421;49.732;20.078;2023-07-31T09:03:09;4.20;;;1.70;;
24301;SDS011;12421;49.732;20.078;2023-07-31T09:13:16;5.90;;;1.80;;
24301;SDS011;12421;49.732;20.078;2023-07-31T09:23:20;6.20;;;1.80;;
24301;SDS011;12421;49.732;20.078;2023-07-31T09:33:25;5.80;;;1.90;;
24301;SDS011;12421;49.732;20.078;2023-07-31T09:43:29;3.80;;;1.70;;
24301;SDS011;12421;49.732;20.078;2023-07-31T09:53:33;4.70;;;1.80;;
24301;SDS011;12421;49.732;20.078;2023-07-31T10:03:37;5.60;;;1.70;;
24301;SDS011;12421;49.732;20.078;2023-07-31T10:13:45;4.50;;;1.70;;
24301;SDS011;12421;49.732;20.078;2023-07-31T10:23:50;4.40;;;1.70;;
24301;SDS011;12421;49.732;20.078;2023-07-31T10:33:58;4.10;;;1.50;;
24301;SDS011;12421;49.732;20.078;2023-07-31T10:44:04;6.10;;;1.90;;
24301;SDS011;12421;49.732;20.078;2023-07-31T10:54:18;4.40;;;1.40;;
24301;SDS011;12421;49.732;20.078;2023-07-31T11:04:24;3.40;;;1.70;;
24301;SDS011;12421;49.732;20.078;2023-07-31T11:24:33;3.30;;;1.60;;
24301;SDS011;12421;49.732;20.078;2023-07-31T11:34:53;2.40;;;1.40;;
24301;SDS011;12421;49.732;20.078;2023-07-31T11:44:58;3.50;;;1.70;;
24301;SDS011;12421;49.732;20.078;2023-07-31T11:55:05;3.50;;;1.60;;
24301;SDS011;12421;49.732;20.078;2023-07-31T12:05:15;3.50;;;1.80;;
24301;SDS011;12421;49.732;20.078;2023-07-31T12:15:18;3.00;;;1.60;;
24301;SDS011;12421;49.732;20.078;2023-07-31T12:25:28;3.80;;;1.40;;
24301;SDS011;12421;49.732;20.078;2023-07-31T12:35:40;3.60;;;1.60;;
24301;SDS011;12421;49.732;20.078;2023-07-31T12:45:49;3.70;;;1.40;;
24301;SDS011;12421;49.732;20.078;2023-07-31T13:05:59;5.20;;;1.30;;
24301;SDS011;12421;49.732;20.078;2023-07-31T13:26:31;3.00;;;1.70;;
24301;SDS011;12421;49.732;20.078;2023-07-31T13:36:35;6.10;;;1.60;;
24301;SDS011;12421;49.732;20.078;2023-07-31T13:46:41;2.60;;;1.40;;
24301;SDS011;12421;49.732;20.078;2023-07-31T13:56:45;2.90;;;1.40;;
24301;SDS011;12421;49.732;20.078;2023-07-31T14:06:49;4.40;;;1.60;;
24301;SDS011;12421;49.732;20.078;2023-07-31T14:16:53;3.10;;;1.40;;
24301;SDS011;12421;49.732;20.078;2023-07-31T14:37:07;4.80;;;2.00;;
24301;SDS011;12421;49.732;20.078;2023-07-31T14:47:24;4.00;;;1.60;;
24301;SDS011;12421;49.732;20.078;2023-07-31T14:57:31;4.20;;;2.20;;
24301;SDS011;12421;49.732;20.078;2023-07-31T15:07:38;4.30;;;1.60;;
24301;SDS011;12421;49.732;20.078;2023-07-31T15:17:45;3.80;;;1.90;;
24301;SDS011;12421;49.732;20.078;2023-07-31T15:27:49;2.90;;;1.50;;
24301;SDS011;12421;49.732;20.078;2023-07-31T15:37:52;3.40;;;1.70;;
24301;SDS011;12421;49.732;20.078;2023-07-31T15:47:56;4.70;;;1.80;;
24301;SDS011;12421;49.732;20.078;2023-07-31T15:58:04;3.40;;;1.70;;
24301;SDS011;12421;49.732;20.078;2023-07-31T16:08:08;6.30;;;1.70;;
24301;SDS011;12421;49.732;20.078;2023-07-31T16:18:12;6.80;;;3.70;;
24301;SDS011;12421;49.732;20.078;2023-07-31T16:28:24;4.30;;;1.80;;
24301;SDS011;12421;49.732;20.078;2023-07-31T16:38:28;4.70;;;2.40;;
24301;SDS011;12421;49.732;20.078;2023-07-31T16:48:32;7.60;;;3.80;;
24301;SDS011;12421;49.732;20.078;2023-07-31T16:58:37;7.10;;;4.10;;
24301;SDS011;12421;49.732;20.078;2023-07-31T17:08:40;13.40;;;8.20;;
24301;SDS011;12421;49.732;20.078;2023-07-31T17:18:45;13.70;;;10.60;;
24301;SDS011;12421;49.732;20.078;2023-07-31T17:28:49;12.80;;;10.40;;
24301;SDS011;12421;49.732;20.078;2023-07-31T17:38:54;11.50;;;9.20;;
24301;SDS011;12421;49.732;20.078;2023-07-31T17:48:57;7.10;;;3.40;;
24301;SDS011;12421;49.732;20.078;2023-07-31T17:59:02;6.70;;;4.00;;
24301;SDS011;12421;49.732;20.078;2023-07-31T18:09:08;8.30;;;3.10;;
24301;SDS011;12421;49.732;20.078;2023-07-31T18:19:13;10.10;;;3.80;;
24301;SDS011;12421;49.732;20.078;2023-07-31T18:29:17;5.40;;;3.30;;
24301;SDS011;12421;49.732;20.078;2023-07-31T18:39:24;8.00;;;3.80;;
24301;SDS011;12421;49.732;20.078;2023-07-31T18:49:30;10.90;;;4.40;;
24301;SDS011;12421;49.732;20.078;2023-07-31T18:59:34;16.60;;;5.30;;
24301;SDS011;12421;49.732;20.078;2023-07-31T19:09:41;9.60;;;4.40;;
24301;SDS011;12421;49.732;20.078;2023-07-31T19:19:45;20.30;;;7.00;;
24301;SDS011;12421;49.732;20.078;2023-07-31T19:29:53;10.80;;;5.20;;
24301;SDS011;12421;49.732;20.078;2023-07-31T19:39:58;8.10;;;4.50;;
24301;SDS011;12421;49.732;20.078;2023-07-31T19:50:02;13.10;;;6.30;;
24301;SDS011;12421;49.732;20.078;2023-07-31T20:00:07;13.10;;;6.60;;
24301;SDS011;12421;49.732;20.078;2023-07-31T20:10:14;30.70;;;17.70;;
24301;SDS011;12421;49.732;20.078;2023-07-31T20:20:18;21.00;;;10.30;;
24301;SDS011;12421;49.732;20.078;2023-07-31T20:30:22;13.20;;;8.20;;
24301;SDS011;12421;49.732;20.078;2023-07-31T20:40:25;24.80;;;12.80;;
24301;SDS011;12421;49.732;20.078;2023-07-31T20:50:33;15.80;;;6.50;;
24301;SDS011;12421;49.732;20.078;2023-07-31T21:00:38;12.60;;;7.20;;
24301;SDS011;12421;49.732;20.078;2023-07-31T21:10:43;14.20;;;7.40;;
24301;SDS011;12421;49.732;20.078;2023-07-31T21:20:47;13.20;;;6.10;;
24301;SDS011;12421;49.732;20.078;2023-07-31T21:30:51;11.90;;;5.50;;
24301;SDS011;12421;49.732;20.078;2023-07-31T21:40:55;8.70;;;4.90;;
24301;SDS011;12421;49.732;20.078;2023-07-31T21:50:59;13.40;;;4.90;;
24301;SDS011;12421;49.732;20.078;2023-07-31T22:01:02;11.30;;;4.50;;
24301;SDS011;12421;49.732;20.078;2023-07-31T22:11:07;6.30;;;3.40;;
24301;SDS011;12421;49.732;20.078;2023-07-31T22:21:10;9.80;;;4.20;;
24301;SDS011;12421;49.732;20.078;2023-07-31T22:31:16;8.20;;;3.90;;
24301;SDS011;12421;49.732;20.078;2023-07-31T22:41:20;11.20;;;3.70;;
24301;SDS011;12421;49.732;20.078;2023-07-31T22:51:23;9.20;;;3.50;;
24301;SDS011;12421;49.732;20.078;2023-07-31T23:01:27;9.50;;;3.50;;
24301;SDS011;12421;49.732;20.078;2023-07-31T23:11:30;7.00;;;3.60;;
24301;SDS011;12421;49.732;20.078;2023-07-31T23:21:34;7.70;;;3.40;;
24301;SDS011;12421;49.732;20.078;2023-07-31T23:31:38;5.80;;;3.20;;
24301;SDS011;12421;49.732;20.078;2023-07-31T23:41:41;6.00;;;3.70;;
24301;SDS011;12421;49.732;20.078;2023-07-31T23:51:49;8.00;;;4.00;;
